createdAt,value
2022-08-14T00:01:15.256Z,100.00
2022-08-14T00:06:28.860Z,100.00
2022-08-14T00:11:32.346Z,100.00
2022-08-14T00:16:41.434Z,100.00
2022-08-14T00:21:50.042Z,100.00
2022-08-14T00:26:54.845Z,100.00
2022-08-14T00:31:57.536Z,100.00
2022-08-14T00:37:02.777Z,100.00
2022-08-14T00:42:05.985Z,100.00
2022-08-14T00:47:10.977Z,100.00
2022-08-14T00:52:18.288Z,100.00
2022-08-14T00:57:22.463Z,100.00
2022-08-14T01:02:27.730Z,100.00
2022-08-14T01:07:38.638Z,100.00
2022-08-14T01:12:50.172Z,100.00
2022-08-14T01:18:23.805Z,100.00
2022-08-14T01:23:41.643Z,100.00
2022-08-14T01:28:56.817Z,100.00
2022-08-14T01:35:18.503Z,100.00
2022-08-14T01:39:28.909Z,100.00
2022-08-14T01:44:36.252Z,100.00
2022-08-14T01:49:46.137Z,100.00
2022-08-14T01:55:03.175Z,100.00
2022-08-14T02:00:15.184Z,100.00
2022-08-14T02:05:21.385Z,100.00
2022-08-14T02:10:29.088Z,100.00
2022-08-14T02:15:31.873Z,100.00
2022-08-14T02:20:35.887Z,100.00
2022-08-14T02:25:40.233Z,100.00
2022-08-14T02:30:43.033Z,100.00
2022-08-14T02:35:53.074Z,100.00
2022-08-14T02:40:57.776Z,100.00
2022-08-14T02:46:00.452Z,100.00
2022-08-14T02:51:07.117Z,100.00
2022-08-14T02:56:30.940Z,100.00
2022-08-14T03:01:43.826Z,100.00
2022-08-14T03:07:06.609Z,100.00
2022-08-14T03:12:12.494Z,100.00
2022-08-14T03:17:20.538Z,100.00
2022-08-14T03:22:25.332Z,100.00
2022-08-14T03:27:35.327Z,100.00
2022-08-14T03:32:51.441Z,100.00
2022-08-14T03:39:13.382Z,100.00
2022-08-14T03:43:18.494Z,100.00
2022-08-14T03:48:30.216Z,100.00
2022-08-14T03:53:35.034Z,100.00
2022-08-14T03:58:42.061Z,100.00
2022-08-14T04:03:44.745Z,100.00
2022-08-14T04:08:51.072Z,100.00
2022-08-14T04:13:55.321Z,100.00
2022-08-14T04:18:59.482Z,100.00
2022-08-14T04:24:06.053Z,100.00
2022-08-14T04:29:16.170Z,100.00
2022-08-14T04:34:24.183Z,100.00
2022-08-14T04:39:48.353Z,100.00
2022-08-14T04:45:01.598Z,100.00
2022-08-14T04:50:04.845Z,100.00
2022-08-14T04:55:08.188Z,100.00
2022-08-14T05:00:16.250Z,100.00
2022-08-14T05:05:21.921Z,100.00
2022-08-14T05:10:26.369Z,100.00
2022-08-14T05:15:39.376Z,100.00
2022-08-14T05:21:55.191Z,100.00
2022-08-14T05:26:13.096Z,100.00
2022-08-14T05:31:20.600Z,100.00
2022-08-14T05:36:23.910Z,100.00
2022-08-14T05:41:40.046Z,100.00
2022-08-14T05:46:50.824Z,100.00
2022-08-14T05:51:53.512Z,100.00
2022-08-14T05:56:56.302Z,100.00
2022-08-14T06:02:00.314Z,100.00
2022-08-14T06:07:04.753Z,100.00
2022-08-14T06:12:08.353Z,100.00
2022-08-14T06:17:15.697Z,100.00
2022-08-14T06:22:28.951Z,100.00
2022-08-14T06:27:36.837Z,100.00
2022-08-14T06:32:42.236Z,100.00
2022-08-14T06:37:47.009Z,100.00
2022-08-14T06:42:50.934Z,100.00
2022-08-14T06:47:59.221Z,100.00
2022-08-14T06:53:01.985Z,100.00
2022-08-14T06:58:05.029Z,100.00
2022-08-14T07:03:29.922Z,100.00
2022-08-14T07:08:33.325Z,100.00
2022-08-14T07:13:36.117Z,100.00
2022-08-14T07:18:41.527Z,100.00
2022-08-14T07:23:45.472Z,100.00
2022-08-14T07:28:48.164Z,100.00
2022-08-14T07:33:52.309Z,100.00
2022-08-14T07:38:55.102Z,100.00
2022-08-14T07:44:00.883Z,100.00
2022-08-14T07:49:24.506Z,100.00
2022-08-14T07:54:30.105Z,100.00
2022-08-14T07:59:42.344Z,100.00
2022-08-14T08:04:54.270Z,100.00
2022-08-14T08:09:59.589Z,100.00
2022-08-14T08:15:07.301Z,100.00
2022-08-14T08:20:20.078Z,100.00
2022-08-14T08:25:23.233Z,100.00
2022-08-14T08:30:27.829Z,100.00
2022-08-14T08:35:46.262Z,100.00
2022-08-14T08:40:57.489Z,100.00
2022-08-14T08:46:04.117Z,100.00
2022-08-14T08:51:08.273Z,100.00
2022-08-14T08:56:10.945Z,100.00
2022-08-14T09:01:32.786Z,100.00
2022-08-14T09:06:59.995Z,100.00
2022-08-14T09:12:13.816Z,100.00
2022-08-14T09:17:16.770Z,100.00
2022-08-14T09:22:44.539Z,100.00
2022-08-14T09:27:45.195Z,100.00
2022-08-14T09:33:00.613Z,100.00
2022-08-14T09:38:19.389Z,100.00
2022-08-14T09:43:32.434Z,100.00
2022-08-14T09:48:35.224Z,100.00
2022-08-14T09:54:19.035Z,100.00
2022-08-14T09:59:15.387Z,100.00
2022-08-14T10:04:34.769Z,100.00
2022-08-14T10:10:00.040Z,100.00
2022-08-14T10:15:16.669Z,100.00
2022-08-14T10:20:40.255Z,100.00
2022-08-14T10:25:51.181Z,100.00
2022-08-14T10:30:55.737Z,100.00
2022-08-14T10:36:00.529Z,100.00
2022-08-14T10:41:15.813Z,100.00
2022-08-14T10:47:35.894Z,100.00
2022-08-14T10:51:42.914Z,100.00
2022-08-14T10:56:46.928Z,100.00
2022-08-14T11:01:49.666Z,100.00
2022-08-14T11:06:54.056Z,100.00
2022-08-14T11:12:33.283Z,100.00
2022-08-14T11:17:21.765Z,100.00
2022-08-14T11:22:56.705Z,100.00
2022-08-14T11:27:49.139Z,100.00
2022-08-14T11:32:54.513Z,100.00
2022-08-14T11:37:59.427Z,100.00
2022-08-14T11:43:05.484Z,100.00
2022-08-14T11:49:01.910Z,100.00
2022-08-14T11:53:43.531Z,100.00
2022-08-14T11:58:53.974Z,100.00
2022-08-14T12:03:59.052Z,100.00
2022-08-14T12:09:03.931Z,100.00
2022-08-14T12:14:30.926Z,100.00
2022-08-14T12:19:45.917Z,100.00
2022-08-14T12:24:54.272Z,100.00
2022-08-14T12:29:59.878Z,100.00
2022-08-14T12:35:03.406Z,100.00
2022-08-14T12:40:11.340Z,100.00
2022-08-14T12:45:16.763Z,100.00
2022-08-14T12:50:20.311Z,100.00
2022-08-14T12:55:23.067Z,100.00
2022-08-14T13:00:49.565Z,100.00
2022-08-14T13:06:02.755Z,100.00
2022-08-14T13:11:07.348Z,100.00
2022-08-14T13:16:20.515Z,100.00
2022-08-14T13:21:23.715Z,100.00
2022-08-14T13:26:28.214Z,100.00
2022-08-14T13:31:34.510Z,100.00
2022-08-14T13:36:54.343Z,100.00
2022-08-14T13:42:04.694Z,100.00
2022-08-14T13:47:14.561Z,98.93
2022-08-14T13:52:51.386Z,100.00
2022-08-14T13:57:49.776Z,100.00
2022-08-14T14:03:05.514Z,100.00
2022-08-14T14:08:18.523Z,100.00
2022-08-14T14:13:32.420Z,100.00
2022-08-14T14:18:42.581Z,96.48
2022-08-14T14:23:45.999Z,98.27
2022-08-14T14:28:50.552Z,98.83
2022-08-14T14:33:58.359Z,98.78
2022-08-14T14:39:04.513Z,98.20
2022-08-14T14:44:09.671Z,96.80
2022-08-14T14:49:18.698Z,94.98
2022-08-14T14:54:31.623Z,92.53
2022-08-14T14:59:40.137Z,92.87
2022-08-14T15:04:44.311Z,96.12
2022-08-14T15:09:47.235Z,96.54
2022-08-14T15:14:55.028Z,97.42
2022-08-14T15:20:03.637Z,91.54
2022-08-14T15:25:07.668Z,92.45
2022-08-14T15:30:12.760Z,93.29
2022-08-14T15:35:29.704Z,95.74
2022-08-14T15:40:41.296Z,95.54
2022-08-14T15:45:44.069Z,95.57
2022-08-14T15:50:49.141Z,95.29
2022-08-14T15:55:55.143Z,96.73
2022-08-14T16:01:26.543Z,97.18
2022-08-14T16:06:40.493Z,97.31
2022-08-14T16:11:50.649Z,98.99
2022-08-14T16:17:00.804Z,99.83
2022-08-14T16:22:58.122Z,100.00
2022-08-14T16:27:39.307Z,100.00
2022-08-14T16:32:55.052Z,100.00
2022-08-14T16:38:44.977Z,100.00
2022-08-14T16:43:25.992Z,100.00
2022-08-14T16:48:55.299Z,100.00
2022-08-14T16:53:55.196Z,100.00
2022-08-14T16:59:06.606Z,100.00
2022-08-14T17:04:14.943Z,100.00
2022-08-14T17:09:32.610Z,100.00
2022-08-14T17:15:03.627Z,100.00
2022-08-14T17:20:39.440Z,100.00
2022-08-14T17:25:39.212Z,100.00
2022-08-14T17:30:49.935Z,100.00
2022-08-14T17:36:10.187Z,100.00
2022-08-14T17:41:26.992Z,100.00
2022-08-14T17:46:37.125Z,100.00
2022-08-14T17:52:07.836Z,100.00
2022-08-14T17:57:23.124Z,100.00
2022-08-14T18:02:31.208Z,100.00
2022-08-14T18:07:59.525Z,100.00
2022-08-14T18:13:01.679Z,100.00
2022-08-14T18:18:07.054Z,100.00
2022-08-14T18:23:13.114Z,100.00
2022-08-14T18:28:51.945Z,100.00
2022-08-14T18:33:45.094Z,100.00
2022-08-14T18:39:00.127Z,100.00
2022-08-14T18:44:04.853Z,100.00
2022-08-14T18:49:15.237Z,100.00
2022-08-14T18:54:33.252Z,100.00
2022-08-14T18:59:42.270Z,100.00
2022-08-14T19:04:45.818Z,100.00
2022-08-14T19:09:53.673Z,100.00
2022-08-14T19:15:08.376Z,100.00
2022-08-14T19:20:12.725Z,100.00
2022-08-14T19:25:48.228Z,100.00
2022-08-14T19:31:37.142Z,100.00
2022-08-14T19:37:04.296Z,100.00
2022-08-14T19:42:10.582Z,100.00
2022-08-14T19:47:16.622Z,100.00
2022-08-14T19:52:22.411Z,100.00
2022-08-14T19:57:29.220Z,100.00
2022-08-14T20:02:32.077Z,100.00
2022-08-14T20:07:59.674Z,100.00
2022-08-14T20:13:05.522Z,100.00
2022-08-14T20:18:18.314Z,100.00
2022-08-14T20:23:38.258Z,100.00
2022-08-14T20:28:51.395Z,100.00
2022-08-14T20:34:06.139Z,100.00
2022-08-14T20:39:15.163Z,100.00
2022-08-14T20:44:38.710Z,100.00
2022-08-14T20:49:41.441Z,100.00
2022-08-14T20:54:50.939Z,100.00
2022-08-14T20:59:57.347Z,100.00
2022-08-14T21:05:03.664Z,100.00
2022-08-14T21:10:34.023Z,100.00
2022-08-14T21:15:32.401Z,100.00
2022-08-14T21:20:37.759Z,100.00
2022-08-14T21:25:42.562Z,100.00
2022-08-14T21:30:51.030Z,100.00
2022-08-14T21:35:58.212Z,100.00
2022-08-14T21:41:03.091Z,100.00
2022-08-14T21:46:25.728Z,100.00
2022-08-14T21:51:53.362Z,100.00
2022-08-14T21:56:56.898Z,100.00
2022-08-14T22:02:02.302Z,100.00
2022-08-14T22:07:09.147Z,100.00
2022-08-14T22:12:57.338Z,100.00
2022-08-14T22:17:37.531Z,100.00
2022-08-14T22:22:48.465Z,100.00
2022-08-14T22:27:59.076Z,100.00
2022-08-14T22:33:04.612Z,100.00
2022-08-14T22:38:35.813Z,100.00
2022-08-14T22:43:31.711Z,100.00
2022-08-14T22:48:34.467Z,100.00
2022-08-14T22:53:44.811Z,100.00
2022-08-14T22:58:47.629Z,100.00
2022-08-14T23:03:53.597Z,100.00
2022-08-14T23:09:36.512Z,100.00
2022-08-14T23:14:24.161Z,100.00
2022-08-14T23:19:33.666Z,100.00
2022-08-14T23:24:41.585Z,100.00
2022-08-14T23:29:45.502Z,100.00
2022-08-14T23:34:51.664Z,100.00
2022-08-14T23:39:56.107Z,100.00
2022-08-14T23:44:59.356Z,100.00
2022-08-14T23:50:07.727Z,100.00
2022-08-14T23:55:12.063Z,100.00
